sensor_id;sensor_type;location;lat;lon;timestamp;P1;durP1;ratioP1;P2;durP2;ratioP2
10633;SDS011;5365;51.640;8.106;2023-05-20T00:02:29;269.37;;;99.33;;
10633;SDS011;5365;51.640;8.106;2023-05-20T00:05:29;272.53;;;103.33;;
10633;SDS011;5365;51.640;8.106;2023-05-20T00:08:29;271.33;;;103.90;;
10633;SDS011;5365;51.640;8.106;2023-05-20T00:11:30;268.50;;;100.10;;
10633;SDS011;5365;51.640;8.106;2023-05-20T00:14:30;267.20;;;98.10;;
10633;SDS011;5365;51.640;8.106;2023-05-20T00:17:30;272.70;;;101.17;;
10633;SDS011;5365;51.640;8.106;2023-05-20T00:20:31;272.20;;;103.60;;
10633;SDS011;5365;51.640;8.106;2023-05-20T00:23:31;278.47;;;115.17;;
10633;SDS011;5365;51.640;8.106;2023-05-20T00:26:31;275.50;;;98.10;;
10633;SDS011;5365;51.640;8.106;2023-05-20T00:29:32;262.50;;;88.10;;
10633;SDS011;5365;51.640;8.106;2023-05-20T00:32:32;259.27;;;83.43;;
10633;SDS011;5365;51.640;8.106;2023-05-20T00:35:32;254.77;;;81.33;;
10633;SDS011;5365;51.640;8.106;2023-05-20T00:38:33;251.13;;;87.87;;
10633;SDS011;5365;51.640;8.106;2023-05-20T00:41:33;260.50;;;86.93;;
10633;SDS011;5365;51.640;8.106;2023-05-20T00:44:34;268.47;;;99.73;;
10633;SDS011;5365;51.640;8.106;2023-05-20T00:47:34;272.60;;;102.30;;
10633;SDS011;5365;51.640;8.106;2023-05-20T00:50:35;276.53;;;97.50;;
10633;SDS011;5365;51.640;8.106;2023-05-20T00:53:35;268.90;;;100.17;;
10633;SDS011;5365;51.640;8.106;2023-05-20T00:56:36;268.47;;;98.47;;
10633;SDS011;5365;51.640;8.106;2023-05-20T00:59:36;270.03;;;99.13;;
10633;SDS011;5365;51.640;8.106;2023-05-20T01:02:36;267.83;;;97.40;;
10633;SDS011;5365;51.640;8.106;2023-05-20T01:05:37;273.93;;;102.90;;
10633;SDS011;5365;51.640;8.106;2023-05-20T01:08:37;271.03;;;100.43;;
10633;SDS011;5365;51.640;8.106;2023-05-20T01:11:39;273.73;;;105.27;;
10633;SDS011;5365;51.640;8.106;2023-05-20T01:14:55;276.50;;;111.10;;
10633;SDS011;5365;51.640;8.106;2023-05-20T01:18:00;280.80;;;114.77;;
10633;SDS011;5365;51.640;8.106;2023-05-20T01:21:01;285.87;;;121.17;;
10633;SDS011;5365;51.640;8.106;2023-05-20T01:24:01;281.93;;;111.60;;
10633;SDS011;5365;51.640;8.106;2023-05-20T01:27:04;274.87;;;102.13;;
10633;SDS011;5365;51.640;8.106;2023-05-20T01:30:09;261.13;;;92.17;;
10633;SDS011;5365;51.640;8.106;2023-05-20T01:33:10;246.90;;;89.43;;
10633;SDS011;5365;51.640;8.106;2023-05-20T01:36:11;282.80;;;112.20;;
10633;SDS011;5365;51.640;8.106;2023-05-20T01:39:11;285.23;;;119.73;;
10633;SDS011;5365;51.640;8.106;2023-05-20T01:42:12;284.90;;;125.53;;
10633;SDS011;5365;51.640;8.106;2023-05-20T01:45:13;281.40;;;116.90;;
10633;SDS011;5365;51.640;8.106;2023-05-20T01:48:13;273.03;;;101.30;;
10633;SDS011;5365;51.640;8.106;2023-05-20T01:51:14;286.33;;;120.10;;
10633;SDS011;5365;51.640;8.106;2023-05-20T01:54:15;278.30;;;109.57;;
10633;SDS011;5365;51.640;8.106;2023-05-20T01:57:21;277.83;;;108.40;;
10633;SDS011;5365;51.640;8.106;2023-05-20T02:00:22;282.70;;;113.73;;
10633;SDS011;5365;51.640;8.106;2023-05-20T02:03:22;282.70;;;109.93;;
10633;SDS011;5365;51.640;8.106;2023-05-20T02:06:22;275.57;;;106.47;;
10633;SDS011;5365;51.640;8.106;2023-05-20T02:09:22;270.98;;;101.05;;
10633;SDS011;5365;51.640;8.106;2023-05-20T02:12:23;276.83;;;101.17;;
10633;SDS011;5365;51.640;8.106;2023-05-20T02:15:23;268.10;;;93.60;;
10633;SDS011;5365;51.640;8.106;2023-05-20T02:18:23;260.70;;;81.43;;
10633;SDS011;5365;51.640;8.106;2023-05-20T02:21:25;238.53;;;70.80;;
10633;SDS011;5365;51.640;8.106;2023-05-20T02:24:25;243.93;;;87.83;;
10633;SDS011;5365;51.640;8.106;2023-05-20T02:27:25;250.97;;;80.30;;
10633;SDS011;5365;51.640;8.106;2023-05-20T02:30:26;262.60;;;93.70;;
10633;SDS011;5365;51.640;8.106;2023-05-20T02:33:26;261.27;;;91.97;;
10633;SDS011;5365;51.640;8.106;2023-05-20T02:36:27;265.23;;;93.23;;
10633;SDS011;5365;51.640;8.106;2023-05-20T02:39:28;263.30;;;89.53;;
10633;SDS011;5365;51.640;8.106;2023-05-20T02:42:28;251.50;;;81.83;;
10633;SDS011;5365;51.640;8.106;2023-05-20T02:45:28;256.30;;;84.80;;
10633;SDS011;5365;51.640;8.106;2023-05-20T02:48:28;256.50;;;87.30;;
10633;SDS011;5365;51.640;8.106;2023-05-20T02:51:28;259.75;;;87.57;;
10633;SDS011;5365;51.640;8.106;2023-05-20T02:54:30;255.60;;;86.00;;
10633;SDS011;5365;51.640;8.106;2023-05-20T02:57:31;243.77;;;84.20;;
10633;SDS011;5365;51.640;8.106;2023-05-20T03:00:32;250.97;;;86.60;;
10633;SDS011;5365;51.640;8.106;2023-05-20T03:03:39;245.87;;;85.53;;
10633;SDS011;5365;51.640;8.106;2023-05-20T03:06:42;246.40;;;86.77;;
10633;SDS011;5365;51.640;8.106;2023-05-20T03:09:43;247.50;;;85.97;;
10633;SDS011;5365;51.640;8.106;2023-05-20T03:12:43;247.70;;;86.68;;
10633;SDS011;5365;51.640;8.106;2023-05-20T03:15:43;247.83;;;87.40;;
10633;SDS011;5365;51.640;8.106;2023-05-20T03:18:44;242.93;;;83.20;;
10633;SDS011;5365;51.640;8.106;2023-05-20T03:21:45;250.80;;;87.27;;
10633;SDS011;5365;51.640;8.106;2023-05-20T03:24:45;248.30;;;81.97;;
10633;SDS011;5365;51.640;8.106;2023-05-20T03:27:45;244.93;;;83.10;;
10633;SDS011;5365;51.640;8.106;2023-05-20T03:30:46;253.17;;;87.03;;
10633;SDS011;5365;51.640;8.106;2023-05-20T03:33:46;252.07;;;85.90;;
10633;SDS011;5365;51.640;8.106;2023-05-20T03:36:46;248.37;;;85.93;;
10633;SDS011;5365;51.640;8.106;2023-05-20T03:39:46;248.60;;;85.17;;
10633;SDS011;5365;51.640;8.106;2023-05-20T03:42:47;244.63;;;82.37;;
10633;SDS011;5365;51.640;8.106;2023-05-20T03:45:47;243.03;;;83.67;;
10633;SDS011;5365;51.640;8.106;2023-05-20T03:48:47;238.33;;;79.13;;
10633;SDS011;5365;51.640;8.106;2023-05-20T03:51:47;243.10;;;78.67;;
10633;SDS011;5365;51.640;8.106;2023-05-20T03:54:47;240.27;;;80.40;;
10633;SDS011;5365;51.640;8.106;2023-05-20T03:57:48;243.60;;;83.57;;
10633;SDS011;5365;51.640;8.106;2023-05-20T04:00:48;245.83;;;82.33;;
10633;SDS011;5365;51.640;8.106;2023-05-20T04:03:48;241.30;;;79.63;;
10633;SDS011;5365;51.640;8.106;2023-05-20T04:06:48;246.27;;;83.37;;
10633;SDS011;5365;51.640;8.106;2023-05-20T04:09:50;246.17;;;80.60;;
10633;SDS011;5365;51.640;8.106;2023-05-20T04:12:51;244.43;;;82.33;;
10633;SDS011;5365;51.640;8.106;2023-05-20T04:15:52;245.50;;;81.73;;
10633;SDS011;5365;51.640;8.106;2023-05-20T04:18:53;247.93;;;85.47;;
10633;SDS011;5365;51.640;8.106;2023-05-20T04:21:53;238.97;;;78.13;;
10633;SDS011;5365;51.640;8.106;2023-05-20T04:24:53;243.90;;;81.47;;
10633;SDS011;5365;51.640;8.106;2023-05-20T04:27:53;240.20;;;76.53;;
10633;SDS011;5365;51.640;8.106;2023-05-20T04:31:00;245.87;;;81.93;;
10633;SDS011;5365;51.640;8.106;2023-05-20T04:34:03;243.10;;;80.47;;
10633;SDS011;5365;51.640;8.106;2023-05-20T04:37:03;240.30;;;79.93;;
10633;SDS011;5365;51.640;8.106;2023-05-20T04:40:03;238.37;;;78.67;;
10633;SDS011;5365;51.640;8.106;2023-05-20T04:43:05;240.10;;;76.70;;
10633;SDS011;5365;51.640;8.106;2023-05-20T04:46:05;246.87;;;78.87;;
10633;SDS011;5365;51.640;8.106;2023-05-20T04:49:06;249.93;;;83.03;;
10633;SDS011;5365;51.640;8.106;2023-05-20T04:52:06;253.97;;;83.63;;
10633;SDS011;5365;51.640;8.106;2023-05-20T04:55:07;249.77;;;80.63;;
10633;SDS011;5365;51.640;8.106;2023-05-20T04:58:09;255.53;;;85.73;;
10633;SDS011;5365;51.640;8.106;2023-05-20T05:01:14;259.13;;;88.97;;
10633;SDS011;5365;51.640;8.106;2023-05-20T05:04:14;250.63;;;83.50;;
10633;SDS011;5365;51.640;8.106;2023-05-20T05:07:15;249.43;;;80.27;;
10633;SDS011;5365;51.640;8.106;2023-05-20T05:10:15;255.33;;;87.07;;
10633;SDS011;5365;51.640;8.106;2023-05-20T05:13:15;255.53;;;85.17;;
10633;SDS011;5365;51.640;8.106;2023-05-20T05:16:15;253.50;;;86.63;;
10633;SDS011;5365;51.640;8.106;2023-05-20T05:19:16;257.10;;;90.33;;
10633;SDS011;5365;51.640;8.106;2023-05-20T05:22:16;260.07;;;86.63;;
10633;SDS011;5365;51.640;8.106;2023-05-20T05:25:16;257.03;;;90.63;;
10633;SDS011;5365;51.640;8.106;2023-05-20T05:28:16;256.33;;;86.37;;
10633;SDS011;5365;51.640;8.106;2023-05-20T05:31:16;257.63;;;87.10;;
10633;SDS011;5365;51.640;8.106;2023-05-20T05:34:16;261.23;;;89.93;;
10633;SDS011;5365;51.640;8.106;2023-05-20T05:37:17;267.53;;;103.77;;
10633;SDS011;5365;51.640;8.106;2023-05-20T05:40:17;263.20;;;96.90;;
10633;SDS011;5365;51.640;8.106;2023-05-20T05:43:17;268.40;;;96.33;;
10633;SDS011;5365;51.640;8.106;2023-05-20T05:46:17;274.93;;;113.63;;
10633;SDS011;5365;51.640;8.106;2023-05-20T05:49:18;273.57;;;112.23;;
10633;SDS011;5365;51.640;8.106;2023-05-20T05:52:18;272.23;;;110.87;;
10633;SDS011;5365;51.640;8.106;2023-05-20T05:55:18;277.40;;;117.20;;
10633;SDS011;5365;51.640;8.106;2023-05-20T05:58:18;279.73;;;126.37;;
10633;SDS011;5365;51.640;8.106;2023-05-20T06:01:19;285.40;;;127.27;;
10633;SDS011;5365;51.640;8.106;2023-05-20T06:04:19;277.60;;;122.90;;
10633;SDS011;5365;51.640;8.106;2023-05-20T06:07:19;286.13;;;132.27;;
10633;SDS011;5365;51.640;8.106;2023-05-20T06:10:19;278.13;;;123.43;;
10633;SDS011;5365;51.640;8.106;2023-05-20T06:13:19;280.03;;;130.60;;
10633;SDS011;5365;51.640;8.106;2023-05-20T06:16:20;282.73;;;133.00;;
10633;SDS011;5365;51.640;8.106;2023-05-20T06:19:20;278.37;;;121.23;;
10633;SDS011;5365;51.640;8.106;2023-05-20T06:22:20;276.17;;;121.73;;
10633;SDS011;5365;51.640;8.106;2023-05-20T06:25:21;263.67;;;99.83;;
10633;SDS011;5365;51.640;8.106;2023-05-20T06:28:22;276.13;;;120.80;;
10633;SDS011;5365;51.640;8.106;2023-05-20T06:31:22;274.90;;;116.93;;
10633;SDS011;5365;51.640;8.106;2023-05-20T06:34:22;287.97;;;143.40;;
10633;SDS011;5365;51.640;8.106;2023-05-20T06:37:22;274.27;;;115.77;;
10633;SDS011;5365;51.640;8.106;2023-05-20T06:40:25;266.57;;;102.40;;
10633;SDS011;5365;51.640;8.106;2023-05-20T06:43:26;278.20;;;118.43;;
10633;SDS011;5365;51.640;8.106;2023-05-20T06:46:26;280.37;;;128.80;;
10633;SDS011;5365;51.640;8.106;2023-05-20T06:49:26;267.07;;;101.70;;
10633;SDS011;5365;51.640;8.106;2023-05-20T06:52:27;239.53;;;92.70;;
10633;SDS011;5365;51.640;8.106;2023-05-20T06:55:27;245.73;;;91.97;;
10633;SDS011;5365;51.640;8.106;2023-05-20T06:58:27;263.27;;;104.37;;
10633;SDS011;5365;51.640;8.106;2023-05-20T07:01:28;268.53;;;107.83;;
10633;SDS011;5365;51.640;8.106;2023-05-20T07:04:28;259.30;;;97.83;;
10633;SDS011;5365;51.640;8.106;2023-05-20T07:07:28;251.90;;;94.30;;
10633;SDS011;5365;51.640;8.106;2023-05-20T07:10:28;249.43;;;92.03;;
10633;SDS011;5365;51.640;8.106;2023-05-20T07:13:29;242.30;;;100.10;;
10633;SDS011;5365;51.640;8.106;2023-05-20T07:16:29;249.77;;;101.00;;
10633;SDS011;5365;51.640;8.106;2023-05-20T07:19:31;248.23;;;100.90;;
10633;SDS011;5365;51.640;8.106;2023-05-20T07:22:32;250.03;;;100.73;;
10633;SDS011;5365;51.640;8.106;2023-05-20T07:25:32;257.63;;;95.77;;
10633;SDS011;5365;51.640;8.106;2023-05-20T07:28:33;244.77;;;94.63;;
10633;SDS011;5365;51.640;8.106;2023-05-20T07:31:34;243.67;;;101.70;;
10633;SDS011;5365;51.640;8.106;2023-05-20T07:34:35;242.63;;;98.37;;
10633;SDS011;5365;51.640;8.106;2023-05-20T07:37:35;244.13;;;102.70;;
10633;SDS011;5365;51.640;8.106;2023-05-20T07:40:35;243.02;;;100.38;;
10633;SDS011;5365;51.640;8.106;2023-05-20T07:43:35;237.80;;;97.60;;
10633;SDS011;5365;51.640;8.106;2023-05-20T07:46:36;240.90;;;99.30;;
10633;SDS011;5365;51.640;8.106;2023-05-20T07:49:37;245.97;;;106.10;;
10633;SDS011;5365;51.640;8.106;2023-05-20T07:52:37;245.03;;;105.97;;
10633;SDS011;5365;51.640;8.106;2023-05-20T07:55:37;248.90;;;103.07;;
10633;SDS011;5365;51.640;8.106;2023-05-20T07:58:41;252.70;;;111.10;;
10633;SDS011;5365;51.640;8.106;2023-05-20T08:01:41;252.37;;;113.90;;
10633;SDS011;5365;51.640;8.106;2023-05-20T08:04:42;255.43;;;112.30;;
10633;SDS011;5365;51.640;8.106;2023-05-20T08:07:42;254.33;;;119.07;;
10633;SDS011;5365;51.640;8.106;2023-05-20T08:10:42;253.13;;;116.00;;
10633;SDS011;5365;51.640;8.106;2023-05-20T08:13:42;256.43;;;119.17;;
10633;SDS011;5365;51.640;8.106;2023-05-20T08:16:42;255.10;;;115.27;;
10633;SDS011;5365;51.640;8.106;2023-05-20T08:19:43;249.43;;;116.00;;
10633;SDS011;5365;51.640;8.106;2023-05-20T08:22:43;255.47;;;120.17;;
10633;SDS011;5365;51.640;8.106;2023-05-20T08:25:43;257.23;;;120.77;;
10633;SDS011;5365;51.640;8.106;2023-05-20T08:28:45;256.63;;;124.53;;
10633;SDS011;5365;51.640;8.106;2023-05-20T08:31:45;258.07;;;124.33;;
10633;SDS011;5365;51.640;8.106;2023-05-20T08:34:46;258.10;;;123.77;;
10633;SDS011;5365;51.640;8.106;2023-05-20T08:37:48;252.70;;;120.03;;
10633;SDS011;5365;51.640;8.106;2023-05-20T08:40:54;253.07;;;126.00;;
10633;SDS011;5365;51.640;8.106;2023-05-20T08:43:55;256.53;;;128.73;;
10633;SDS011;5365;51.640;8.106;2023-05-20T08:46:56;258.13;;;130.40;;
10633;SDS011;5365;51.640;8.106;2023-05-20T08:49:56;255.53;;;124.73;;
10633;SDS011;5365;51.640;8.106;2023-05-20T08:52:56;262.13;;;138.23;;
10633;SDS011;5365;51.640;8.106;2023-05-20T08:56:00;258.67;;;122.97;;
10633;SDS011;5365;51.640;8.106;2023-05-20T08:59:02;257.80;;;122.13;;
10633;SDS011;5365;51.640;8.106;2023-05-20T09:02:02;256.57;;;129.77;;
10633;SDS011;5365;51.640;8.106;2023-05-20T09:05:03;261.50;;;134.13;;
10633;SDS011;5365;51.640;8.106;2023-05-20T09:08:07;256.50;;;139.03;;
10633;SDS011;5365;51.640;8.106;2023-05-20T09:11:08;265.03;;;137.60;;
10633;SDS011;5365;51.640;8.106;2023-05-20T09:14:09;257.57;;;130.97;;
10633;SDS011;5365;51.640;8.106;2023-05-20T09:17:09;258.20;;;146.00;;
10633;SDS011;5365;51.640;8.106;2023-05-20T09:20:10;261.77;;;143.93;;
10633;SDS011;5365;51.640;8.106;2023-05-20T09:23:10;261.57;;;146.07;;
10633;SDS011;5365;51.640;8.106;2023-05-20T09:26:11;262.03;;;147.53;;
10633;SDS011;5365;51.640;8.106;2023-05-20T09:29:11;263.27;;;151.00;;
10633;SDS011;5365;51.640;8.106;2023-05-20T09:32:11;265.63;;;158.37;;
10633;SDS011;5365;51.640;8.106;2023-05-20T09:35:12;263.67;;;154.03;;
10633;SDS011;5365;51.640;8.106;2023-05-20T09:38:13;259.57;;;148.40;;
10633;SDS011;5365;51.640;8.106;2023-05-20T09:41:14;258.10;;;156.03;;
10633;SDS011;5365;51.640;8.106;2023-05-20T09:44:14;253.17;;;146.30;;
10633;SDS011;5365;51.640;8.106;2023-05-20T09:47:15;254.07;;;147.53;;
10633;SDS011;5365;51.640;8.106;2023-05-20T09:50:16;262.20;;;153.90;;
10633;SDS011;5365;51.640;8.106;2023-05-20T09:53:20;301.43;;;242.67;;
10633;SDS011;5365;51.640;8.106;2023-05-20T09:56:21;326.60;;;291.33;;
10633;SDS011;5365;51.640;8.106;2023-05-20T09:59:23;361.90;;;325.80;;
10633;SDS011;5365;51.640;8.106;2023-05-20T10:02:23;277.60;;;188.30;;
10633;SDS011;5365;51.640;8.106;2023-05-20T10:05:24;289.67;;;222.13;;
10633;SDS011;5365;51.640;8.106;2023-05-20T10:21:19;304.47;;;265.00;;
10633;SDS011;5365;51.640;8.106;2023-05-20T10:24:28;297.57;;;258.90;;
10633;SDS011;5365;51.640;8.106;2023-05-20T10:27:28;418.83;;;381.27;;
10633;SDS011;5365;51.640;8.106;2023-05-20T10:30:28;416.80;;;379.63;;
10633;SDS011;5365;51.640;8.106;2023-05-20T10:33:29;474.73;;;436.07;;
10633;SDS011;5365;51.640;8.106;2023-05-20T10:36:29;480.47;;;441.70;;
10633;SDS011;5365;51.640;8.106;2023-05-20T10:39:31;514.97;;;475.03;;
10633;SDS011;5365;51.640;8.106;2023-05-20T10:42:34;550.43;;;509.83;;
10633;SDS011;5365;51.640;8.106;2023-05-20T10:45:34;542.80;;;502.40;;
10633;SDS011;5365;51.640;8.106;2023-05-20T10:48:36;539.60;;;499.47;;
10633;SDS011;5365;51.640;8.106;2023-05-20T10:51:40;554.50;;;513.67;;
10633;SDS011;5365;51.640;8.106;2023-05-20T10:54:54;548.00;;;507.80;;
10633;SDS011;5365;51.640;8.106;2023-05-20T10:57:55;608.93;;;567.07;;
10633;SDS011;5365;51.640;8.106;2023-05-20T11:00:56;609.10;;;567.07;;
10633;SDS011;5365;51.640;8.106;2023-05-20T11:03:56;647.87;;;604.70;;
10633;SDS011;5365;51.640;8.106;2023-05-20T11:06:59;654.93;;;611.73;;
10633;SDS011;5365;51.640;8.106;2023-05-20T11:09:59;621.53;;;579.47;;
10633;SDS011;5365;51.640;8.106;2023-05-20T11:13:00;611.53;;;569.53;;
10633;SDS011;5365;51.640;8.106;2023-05-20T11:16:00;623.40;;;581.23;;
10633;SDS011;5365;51.640;8.106;2023-05-20T11:19:01;639.77;;;597.07;;
10633;SDS011;5365;51.640;8.106;2023-05-20T11:22:01;615.63;;;573.60;;
10633;SDS011;5365;51.640;8.106;2023-05-20T11:25:04;642.33;;;599.40;;
10633;SDS011;5365;51.640;8.106;2023-05-20T11:28:07;636.87;;;594.17;;
10633;SDS011;5365;51.640;8.106;2023-05-20T11:31:08;603.60;;;561.70;;
10633;SDS011;5365;51.640;8.106;2023-05-20T11:34:08;575.17;;;533.83;;
10633;SDS011;5365;51.640;8.106;2023-05-20T11:37:09;595.42;;;553.50;;
10633;SDS011;5365;51.640;8.106;2023-05-20T11:40:10;536.00;;;495.63;;
10633;SDS011;5365;51.640;8.106;2023-05-20T11:43:12;569.97;;;529.07;;
10633;SDS011;5365;51.640;8.106;2023-05-20T11:46:13;529.53;;;489.47;;
10633;SDS011;5365;51.640;8.106;2023-05-20T11:49:13;568.00;;;527.00;;
10633;SDS011;5365;51.640;8.106;2023-05-20T11:52:14;563.00;;;522.20;;
10633;SDS011;5365;51.640;8.106;2023-05-20T11:55:14;519.60;;;479.73;;
10633;SDS011;5365;51.640;8.106;2023-05-20T11:58:15;541.77;;;501.60;;
10633;SDS011;5365;51.640;8.106;2023-05-20T12:01:15;554.57;;;513.77;;
10633;SDS011;5365;51.640;8.106;2023-05-20T12:04:15;525.90;;;485.63;;
10633;SDS011;5365;51.640;8.106;2023-05-20T12:07:17;585.03;;;543.83;;
10633;SDS011;5365;51.640;8.106;2023-05-20T12:10:17;521.13;;;481.50;;
10633;SDS011;5365;51.640;8.106;2023-05-20T12:13:17;558.93;;;518.33;;
10633;SDS011;5365;51.640;8.106;2023-05-20T12:16:18;552.20;;;511.60;;
10633;SDS011;5365;51.640;8.106;2023-05-20T12:19:18;549.77;;;509.10;;
10633;SDS011;5365;51.640;8.106;2023-05-20T12:22:18;564.13;;;523.33;;
10633;SDS011;5365;51.640;8.106;2023-05-20T12:25:19;554.17;;;513.53;;
10633;SDS011;5365;51.640;8.106;2023-05-20T12:28:20;548.03;;;507.43;;
10633;SDS011;5365;51.640;8.106;2023-05-20T12:31:20;557.57;;;516.87;;
10633;SDS011;5365;51.640;8.106;2023-05-20T12:34:20;531.23;;;490.93;;
10633;SDS011;5365;51.640;8.106;2023-05-20T12:37:21;497.87;;;458.43;;
10633;SDS011;5365;51.640;8.106;2023-05-20T12:40:21;519.57;;;479.73;;
10633;SDS011;5365;51.640;8.106;2023-05-20T12:43:21;489.03;;;450.00;;
10633;SDS011;5365;51.640;8.106;2023-05-20T12:46:22;502.97;;;463.27;;
10633;SDS011;5365;51.640;8.106;2023-05-20T12:49:22;521.63;;;481.50;;
10633;SDS011;5365;51.640;8.106;2023-05-20T12:52:22;396.07;;;359.23;;
10633;SDS011;5365;51.640;8.106;2023-05-20T12:55:22;395.83;;;358.97;;
10633;SDS011;5365;51.640;8.106;2023-05-20T12:58:23;423.53;;;385.37;;
10633;SDS011;5365;51.640;8.106;2023-05-20T13:01:23;376.77;;;340.60;;
10633;SDS011;5365;51.640;8.106;2023-05-20T13:04:23;403.90;;;366.90;;
10633;SDS011;5365;51.640;8.106;2023-05-20T13:07:23;433.07;;;395.33;;
10633;SDS011;5365;51.640;8.106;2023-05-20T13:10:25;441.93;;;403.97;;
10633;SDS011;5365;51.640;8.106;2023-05-20T13:13:26;458.33;;;419.97;;
10633;SDS011;5365;51.640;8.106;2023-05-20T13:16:26;470.13;;;431.47;;
10633;SDS011;5365;51.640;8.106;2023-05-20T13:19:26;399.37;;;362.80;;
10633;SDS011;5365;51.640;8.106;2023-05-20T13:22:26;414.77;;;377.40;;
10633;SDS011;5365;51.640;8.106;2023-05-20T13:25:27;588.23;;;547.07;;
10633;SDS011;5365;51.640;8.106;2023-05-20T13:28:28;591.87;;;550.60;;
10633;SDS011;5365;51.640;8.106;2023-05-20T13:31:28;370.97;;;336.30;;
10633;SDS011;5365;51.640;8.106;2023-05-20T13:34:28;357.67;;;323.10;;
10633;SDS011;5365;51.640;8.106;2023-05-20T13:37:29;533.00;;;493.17;;
10633;SDS011;5365;51.640;8.106;2023-05-20T13:40:29;543.33;;;503.57;;
10633;SDS011;5365;51.640;8.106;2023-05-20T13:43:30;437.90;;;400.87;;
10633;SDS011;5365;51.640;8.106;2023-05-20T13:46:30;648.03;;;605.07;;
10633;SDS011;5365;51.640;8.106;2023-05-20T13:49:31;635.17;;;592.83;;
10633;SDS011;5365;51.640;8.106;2023-05-20T13:52:31;627.40;;;585.05;;
10633;SDS011;5365;51.640;8.106;2023-05-20T13:55:31;620.60;;;578.67;;
10633;SDS011;5365;51.640;8.106;2023-05-20T13:58:31;675.83;;;632.03;;
10633;SDS011;5365;51.640;8.106;2023-05-20T14:01:31;507.20;;;467.47;;
10633;SDS011;5365;51.640;8.106;2023-05-20T14:04:32;653.97;;;610.77;;
10633;SDS011;5365;51.640;8.106;2023-05-20T14:07:38;648.90;;;605.53;;
10633;SDS011;5365;51.640;8.106;2023-05-20T14:10:38;641.97;;;599.23;;
10633;SDS011;5365;51.640;8.106;2023-05-20T14:13:38;638.73;;;595.90;;
10633;SDS011;5365;51.640;8.106;2023-05-20T14:16:39;625.10;;;582.33;;
10633;SDS011;5365;51.640;8.106;2023-05-20T14:19:39;535.97;;;495.90;;
10633;SDS011;5365;51.640;8.106;2023-05-20T14:22:39;510.93;;;471.13;;
10633;SDS011;5365;51.640;8.106;2023-05-20T14:25:39;502.63;;;462.83;;
10633;SDS011;5365;51.640;8.106;2023-05-20T14:28:40;462.90;;;424.20;;
10633;SDS011;5365;51.640;8.106;2023-05-20T14:31:40;565.93;;;524.87;;
10633;SDS011;5365;51.640;8.106;2023-05-20T14:34:40;472.63;;;433.73;;
10633;SDS011;5365;51.640;8.106;2023-05-20T14:37:40;491.90;;;452.77;;
10633;SDS011;5365;51.640;8.106;2023-05-20T14:40:40;440.50;;;402.50;;
10633;SDS011;5365;51.640;8.106;2023-05-20T14:43:41;442.07;;;403.83;;
10633;SDS011;5365;51.640;8.106;2023-05-20T14:46:41;461.38;;;422.67;;
10633;SDS011;5365;51.640;8.106;2023-05-20T14:49:41;529.77;;;489.63;;
10633;SDS011;5365;51.640;8.106;2023-05-20T14:52:43;433.60;;;395.10;;
10633;SDS011;5365;51.640;8.106;2023-05-20T14:55:43;529.15;;;488.85;;
10633;SDS011;5365;51.640;8.106;2023-05-20T14:58:43;397.87;;;360.37;;
10633;SDS011;5365;51.640;8.106;2023-05-20T15:01:44;370.45;;;333.98;;
10633;SDS011;5365;51.640;8.106;2023-05-20T15:04:44;419.87;;;381.73;;
10633;SDS011;5365;51.640;8.106;2023-05-20T15:07:45;448.03;;;409.13;;
10633;SDS011;5365;51.640;8.106;2023-05-20T15:10:45;412.23;;;374.70;;
10633;SDS011;5365;51.640;8.106;2023-05-20T15:13:46;383.20;;;346.10;;
10633;SDS011;5365;51.640;8.106;2023-05-20T15:16:47;371.50;;;334.70;;
10633;SDS011;5365;51.640;8.106;2023-05-20T15:19:47;380.77;;;343.73;;
10633;SDS011;5365;51.640;8.106;2023-05-20T15:22:47;423.67;;;385.63;;
10633;SDS011;5365;51.640;8.106;2023-05-20T15:25:48;416.33;;;378.37;;
10633;SDS011;5365;51.640;8.106;2023-05-20T15:28:49;387.17;;;349.80;;
10633;SDS011;5365;51.640;8.106;2023-05-20T15:31:49;497.43;;;457.77;;
10633;SDS011;5365;51.640;8.106;2023-05-20T15:34:49;502.37;;;462.60;;
10633;SDS011;5365;51.640;8.106;2023-05-20T15:37:50;476.10;;;436.57;;
10633;SDS011;5365;51.640;8.106;2023-05-20T15:40:50;471.70;;;432.53;;
10633;SDS011;5365;51.640;8.106;2023-05-20T15:43:50;484.80;;;445.60;;
10633;SDS011;5365;51.640;8.106;2023-05-20T15:46:50;444.93;;;406.67;;
10633;SDS011;5365;51.640;8.106;2023-05-20T15:49:50;411.50;;;373.87;;
10633;SDS011;5365;51.640;8.106;2023-05-20T15:52:51;418.23;;;380.40;;
10633;SDS011;5365;51.640;8.106;2023-05-20T15:55:51;432.23;;;394.10;;
10633;SDS011;5365;51.640;8.106;2023-05-20T15:58:51;426.73;;;388.67;;
10633;SDS011;5365;51.640;8.106;2023-05-20T16:01:52;426.03;;;388.07;;
10633;SDS011;5365;51.640;8.106;2023-05-20T16:04:52;423.43;;;384.77;;
10633;SDS011;5365;51.640;8.106;2023-05-20T16:07:52;416.80;;;378.70;;
10633;SDS011;5365;51.640;8.106;2023-05-20T16:10:53;374.00;;;336.90;;
10633;SDS011;5365;51.640;8.106;2023-05-20T16:13:53;416.57;;;378.63;;
10633;SDS011;5365;51.640;8.106;2023-05-20T16:16:54;375.57;;;338.67;;
10633;SDS011;5365;51.640;8.106;2023-05-20T16:19:54;424.27;;;385.97;;
10633;SDS011;5365;51.640;8.106;2023-05-20T16:22:54;390.30;;;352.87;;
10633;SDS011;5365;51.640;8.106;2023-05-20T16:25:55;405.87;;;368.10;;
10633;SDS011;5365;51.640;8.106;2023-05-20T16:28:55;362.00;;;325.13;;
10633;SDS011;5365;51.640;8.106;2023-05-20T16:31:55;401.37;;;363.30;;
10633;SDS011;5365;51.640;8.106;2023-05-20T16:34:55;390.67;;;353.53;;
10633;SDS011;5365;51.640;8.106;2023-05-20T16:37:55;394.67;;;357.03;;
10633;SDS011;5365;51.640;8.106;2023-05-20T16:40:55;410.73;;;372.33;;
10633;SDS011;5365;51.640;8.106;2023-05-20T16:43:56;413.80;;;375.75;;
10633;SDS011;5365;51.640;8.106;2023-05-20T16:46:56;371.97;;;334.87;;
10633;SDS011;5365;51.640;8.106;2023-05-20T16:49:56;357.37;;;320.53;;
10633;SDS011;5365;51.640;8.106;2023-05-20T16:52:56;435.92;;;397.33;;
10633;SDS011;5365;51.640;8.106;2023-05-20T16:55:58;401.70;;;363.63;;
10633;SDS011;5365;51.640;8.106;2023-05-20T16:58:58;403.97;;;366.00;;
10633;SDS011;5365;51.640;8.106;2023-05-20T17:01:59;392.13;;;354.63;;
10633;SDS011;5365;51.640;8.106;2023-05-20T17:04:59;384.30;;;346.83;;
10633;SDS011;5365;51.640;8.106;2023-05-20T17:08:00;363.57;;;326.50;;
10633;SDS011;5365;51.640;8.106;2023-05-20T17:11:00;372.92;;;335.85;;
10633;SDS011;5365;51.640;8.106;2023-05-20T17:14:00;384.57;;;346.80;;
10633;SDS011;5365;51.640;8.106;2023-05-20T17:17:01;405.90;;;367.73;;
10633;SDS011;5365;51.640;8.106;2023-05-20T17:20:02;383.40;;;346.03;;
10633;SDS011;5365;51.640;8.106;2023-05-20T17:23:04;383.27;;;345.80;;
10633;SDS011;5365;51.640;8.106;2023-05-20T17:26:04;345.03;;;308.07;;
10633;SDS011;5365;51.640;8.106;2023-05-20T17:29:04;414.60;;;376.10;;
10633;SDS011;5365;51.640;8.106;2023-05-20T17:32:05;352.20;;;315.70;;
10633;SDS011;5365;51.640;8.106;2023-05-20T17:35:05;371.77;;;334.80;;
10633;SDS011;5365;51.640;8.106;2023-05-20T17:38:06;360.33;;;323.57;;
10633;SDS011;5365;51.640;8.106;2023-05-20T17:41:06;349.97;;;313.40;;